createdAt,value
2019-05-28T00:00:27.715Z,18.00
2019-05-28T00:02:55.415Z,18.00
2019-05-28T00:05:23.048Z,18.10
2019-05-28T00:07:50.676Z,18.10
2019-05-28T00:10:18.450Z,18.10
2019-05-28T00:12:46.047Z,18.10
2019-05-28T00:15:14.066Z,18.10
2019-05-28T00:17:41.672Z,18.00
2019-05-28T00:20:09.527Z,18.00
2019-05-28T00:22:37.242Z,17.80
2019-05-28T00:25:05.177Z,17.80
2019-05-28T00:27:32.879Z,17.80
2019-05-28T00:30:00.645Z,17.80
2019-05-28T00:32:28.287Z,17.80
2019-05-28T00:34:55.816Z,17.80
2019-05-28T00:37:23.531Z,17.80
2019-05-28T00:39:51.301Z,17.80
2019-05-28T00:42:19.161Z,17.80
2019-05-28T00:44:52.741Z,17.80
2019-05-28T00:47:20.414Z,17.80
2019-05-28T00:49:49.733Z,17.80
2019-05-28T00:52:17.549Z,17.80
2019-05-28T00:54:45.215Z,17.80
2019-05-28T00:57:13.485Z,17.70
2019-05-28T00:59:41.838Z,17.80
2019-05-28T01:02:09.642Z,17.70
2019-05-28T01:04:37.274Z,17.70
2019-05-28T01:07:04.830Z,17.60
2019-05-28T01:09:32.446Z,17.60
2019-05-28T01:12:00.361Z,17.60
2019-05-28T01:14:27.943Z,17.60
2019-05-28T01:16:55.637Z,17.50
2019-05-28T01:19:25.848Z,17.50
2019-05-28T01:21:53.453Z,17.40
2019-05-28T01:24:20.970Z,17.40
2019-05-28T01:26:48.531Z,17.40
2019-05-28T01:29:16.123Z,17.40
2019-05-28T01:31:43.750Z,17.40
2019-05-28T01:34:11.414Z,17.30
2019-05-28T01:36:39.010Z,17.30
2019-05-28T01:39:06.963Z,17.40
2019-05-28T01:41:34.718Z,17.30
2019-05-28T01:44:02.324Z,17.30
2019-05-28T01:46:29.896Z,17.20
2019-05-28T01:48:57.539Z,17.20
2019-05-28T01:51:25.172Z,17.10
2019-05-28T01:53:55.363Z,17.10
2019-05-28T01:56:32.090Z,17.20
2019-05-28T01:58:59.629Z,17.20
2019-05-28T02:01:27.195Z,17.30
2019-05-28T02:03:54.854Z,17.30
2019-05-28T02:06:25.511Z,17.30
2019-05-28T02:08:53.446Z,17.20
2019-05-28T02:11:20.983Z,17.20
2019-05-28T02:13:48.630Z,17.20
2019-05-28T02:16:16.236Z,17.30
2019-05-28T02:18:43.941Z,17.20
2019-05-28T02:21:11.575Z,17.20
2019-05-28T02:23:39.209Z,17.30
2019-05-28T02:26:06.945Z,17.30
2019-05-28T02:28:34.784Z,17.30
2019-05-28T02:31:02.464Z,17.30
2019-05-28T02:33:30.097Z,17.30
2019-05-28T02:35:57.802Z,17.20
2019-05-28T02:38:25.405Z,17.20
2019-05-28T02:40:53.116Z,17.20
2019-05-28T02:43:20.956Z,17.10
2019-05-28T02:45:48.589Z,17.10
2019-05-28T02:48:16.178Z,17.00
2019-05-28T02:51:03.528Z,16.90
2019-05-28T02:53:31.457Z,16.80
2019-05-28T02:55:59.297Z,16.70
2019-05-28T02:58:36.103Z,16.70
2019-05-28T03:01:08.110Z,16.50
2019-05-28T03:03:36.013Z,16.40
2019-05-28T03:06:06.273Z,16.30
2019-05-28T03:08:33.829Z,16.30
2019-05-28T03:11:03.818Z,16.20
2019-05-28T03:13:31.564Z,16.30
2019-05-28T03:16:02.260Z,16.30
2019-05-28T03:18:31.362Z,16.30
2019-05-28T03:21:01.264Z,16.30
2019-05-28T03:23:32.107Z,16.10
2019-05-28T03:25:59.684Z,16.10
2019-05-28T03:28:27.240Z,16.10
2019-05-28T03:30:54.976Z,16.10
2019-05-28T03:33:28.862Z,16.20
2019-05-28T03:35:58.040Z,16.20
2019-05-28T03:38:26.906Z,16.00
2019-05-28T03:40:54.634Z,16.10
2019-05-28T03:43:22.208Z,16.00
2019-05-28T03:45:50.265Z,15.90
2019-05-28T03:48:17.875Z,15.70
2019-05-28T03:50:45.442Z,15.70
2019-05-28T03:53:13.343Z,15.70
2019-05-28T03:55:40.935Z,15.50
2019-05-28T03:58:08.459Z,15.40
2019-05-28T04:00:38.584Z,15.50
2019-05-28T04:03:06.157Z,15.40
2019-05-28T04:05:33.739Z,15.30
2019-05-28T04:08:01.314Z,15.30
2019-05-28T04:10:28.821Z,15.30
2019-05-28T04:12:56.472Z,15.30
2019-05-28T04:15:24.375Z,15.20
2019-05-28T04:17:51.967Z,15.10
2019-05-28T04:20:19.822Z,15.10
2019-05-28T04:22:47.426Z,15.10
2019-05-28T04:25:14.968Z,15.10
2019-05-28T04:27:42.513Z,15.00
2019-05-28T04:30:10.319Z,15.00
2019-05-28T04:32:41.189Z,15.10
2019-05-28T04:35:07.480Z,15.00
2019-05-28T04:37:35.027Z,15.10
2019-05-28T04:40:02.980Z,15.20
2019-05-28T04:42:30.718Z,15.30
2019-05-28T04:44:58.287Z,15.40
2019-05-28T04:47:25.895Z,15.50
2019-05-28T04:49:53.443Z,15.50
2019-05-28T04:52:21.117Z,15.40
2019-05-28T04:54:48.998Z,15.50
2019-05-28T04:57:16.580Z,15.50
2019-05-28T04:59:44.147Z,15.60
2019-05-28T05:02:11.757Z,15.60
2019-05-28T05:04:40.378Z,15.50
2019-05-28T05:07:08.012Z,15.40
2019-05-28T05:09:35.562Z,15.40
2019-05-28T05:12:03.300Z,15.40
2019-05-28T05:14:30.954Z,15.30
2019-05-28T05:16:58.553Z,15.30
2019-05-28T05:19:26.161Z,15.30
2019-05-28T05:21:53.721Z,15.20
2019-05-28T05:24:21.281Z,15.20
2019-05-28T05:26:57.370Z,15.10
2019-05-28T05:29:25.260Z,15.10
2019-05-28T05:31:53.185Z,14.90
2019-05-28T05:34:21.040Z,14.90
2019-05-28T05:36:48.842Z,15.00
2019-05-28T05:39:17.557Z,15.00
2019-05-28T05:41:45.283Z,15.00
2019-05-28T05:44:12.881Z,15.10
2019-05-28T05:46:40.665Z,15.10
2019-05-28T05:49:08.500Z,15.20
2019-05-28T06:05:52.425Z,15.20
2019-05-28T06:21:12.784Z,15.50
2019-05-28T06:23:41.686Z,15.50
2019-05-28T06:26:21.154Z,15.50
2019-05-28T06:28:51.202Z,15.60
2019-05-28T06:31:22.628Z,15.40
2019-05-28T06:33:56.875Z,15.40
2019-05-28T06:39:47.530Z,15.40
2019-05-28T06:42:40.914Z,15.40
2019-05-28T06:45:29.897Z,15.30
2019-05-28T06:47:58.652Z,15.20
2019-05-28T06:50:34.085Z,15.20
2019-05-28T06:53:19.204Z,15.10
2019-05-28T06:56:10.346Z,15.20
2019-05-28T06:58:54.778Z,15.20
2019-05-28T07:01:32.764Z,15.20
2019-05-28T07:04:13.399Z,15.20
2019-05-28T07:06:59.198Z,15.30
2019-05-28T07:09:30.408Z,15.30
2019-05-28T07:12:03.999Z,15.40
2019-05-28T07:14:37.240Z,15.50
2019-05-28T07:17:18.489Z,15.60
2019-05-28T07:19:56.536Z,15.70
2019-05-28T07:22:33.270Z,15.60
2019-05-28T07:25:04.423Z,15.80
2019-05-28T07:27:41.805Z,15.90
2019-05-28T07:30:21.193Z,16.00
2019-05-28T07:32:48.030Z,16.20
2019-05-28T07:35:23.105Z,16.30
2019-05-28T07:37:54.648Z,16.30
2019-05-28T07:40:32.457Z,16.40
2019-05-28T07:43:00.894Z,16.40
2019-05-28T07:45:28.987Z,16.30
2019-05-28T07:47:56.811Z,16.00
2019-05-28T07:50:27.757Z,15.80
2019-05-28T07:53:05.656Z,15.70
2019-05-28T07:55:52.874Z,15.50
2019-05-28T07:58:23.617Z,15.40
2019-05-28T08:00:51.797Z,15.30
2019-05-28T08:03:23.255Z,15.30
2019-05-28T08:05:52.145Z,15.20
2019-05-28T08:08:20.657Z,15.10
2019-05-28T08:10:48.565Z,14.90
2019-05-28T08:13:19.140Z,14.80
2019-05-28T08:15:47.153Z,14.70
2019-05-28T08:18:15.122Z,14.70
2019-05-28T08:20:45.049Z,14.70
2019-05-28T08:23:13.095Z,14.70
2019-05-28T08:25:47.180Z,14.70
2019-05-28T08:28:20.425Z,14.60
2019-05-28T08:30:50.794Z,14.60
2019-05-28T08:33:19.161Z,14.70
2019-05-28T08:35:47.014Z,14.80
2019-05-28T08:38:14.815Z,14.90
2019-05-28T08:40:43.288Z,15.00
2019-05-28T08:43:11.438Z,15.10
2019-05-28T08:45:42.444Z,15.10
2019-05-28T08:48:11.428Z,15.20
2019-05-28T08:50:41.143Z,15.20
2019-05-28T08:53:11.758Z,15.20
2019-05-28T08:56:50.639Z,15.10
2019-05-28T08:59:21.401Z,15.20
2019-05-28T09:01:53.365Z,15.30
2019-05-28T09:04:21.836Z,15.40
2019-05-28T09:06:56.815Z,15.60
2019-05-28T09:09:54.998Z,15.60
2019-05-28T09:12:39.108Z,15.60
2019-05-28T09:15:16.994Z,15.60
2019-05-28T09:17:48.399Z,15.50
2019-05-28T09:20:16.773Z,15.50
2019-05-28T09:22:44.685Z,15.60
2019-05-28T09:25:13.194Z,15.70
2019-05-28T09:27:41.005Z,15.80
2019-05-28T09:30:09.747Z,15.80
2019-05-28T09:32:40.017Z,15.80
2019-05-28T09:35:11.872Z,15.80
2019-05-28T09:37:39.632Z,15.90
2019-05-28T09:40:08.472Z,15.80
2019-05-28T09:42:36.056Z,15.70
2019-05-28T09:45:21.443Z,15.30
2019-05-28T09:47:33.641Z,14.90
2019-05-28T09:50:01.534Z,14.60
2019-05-28T09:52:29.470Z,14.60
2019-05-28T09:54:57.784Z,14.60
2019-05-28T09:57:25.647Z,14.60
2019-05-28T09:59:53.491Z,14.70
2019-05-28T10:02:21.355Z,14.90
2019-05-28T10:04:51.065Z,15.10
2019-05-28T10:07:22.086Z,15.20
2019-05-28T10:09:50.158Z,15.40
2019-05-28T10:12:17.908Z,15.60
2019-05-28T10:14:53.712Z,15.70
2019-05-28T10:17:23.739Z,15.80
2019-05-28T10:19:52.073Z,15.90
2019-05-28T10:22:20.101Z,16.00
2019-05-28T10:24:48.107Z,16.10
2019-05-28T10:27:18.643Z,16.10
2019-05-28T10:29:46.970Z,16.10
2019-05-28T10:32:16.635Z,16.10
2019-05-28T10:35:02.624Z,16.10
2019-05-28T10:37:15.006Z,16.10
2019-05-28T10:39:43.754Z,16.00
2019-05-28T10:42:11.544Z,16.10
2019-05-28T10:44:44.979Z,16.10
2019-05-28T10:47:14.565Z,16.00
2019-05-28T10:49:50.693Z,16.20
2019-05-28T10:52:19.940Z,16.30
2019-05-28T10:54:51.225Z,16.50
2019-05-28T10:57:22.046Z,16.50
2019-05-28T10:59:55.266Z,16.70
2019-05-28T11:02:23.787Z,16.90
2019-05-28T11:04:54.258Z,17.00
2019-05-28T11:07:23.658Z,17.10
2019-05-28T11:09:51.326Z,17.20
2019-05-28T11:12:23.579Z,17.20
2019-05-28T11:14:51.421Z,17.20
2019-05-28T11:17:20.001Z,17.30
2019-05-28T11:20:13.063Z,17.30
2019-05-28T11:22:41.580Z,17.40
2019-05-28T11:25:10.766Z,17.40
2019-05-28T11:27:51.573Z,17.50
2019-05-28T11:31:11.625Z,17.40
2019-05-28T11:34:16.847Z,17.20
2019-05-28T11:46:13.385Z,17.00
2019-05-28T11:49:21.417Z,17.20
2019-05-28T12:07:31.177Z,17.40
2019-05-28T12:10:04.353Z,17.60
2019-05-28T12:12:32.503Z,17.60
2019-05-28T12:15:01.297Z,17.70
2019-05-28T12:17:42.502Z,17.80
2019-05-28T12:20:32.555Z,17.80
2019-05-28T12:23:10.704Z,17.90
2019-05-28T12:25:47.287Z,18.00
2019-05-28T12:28:15.123Z,18.10
2019-05-28T12:30:50.644Z,18.20
2019-05-28T12:33:26.863Z,18.30
2019-05-28T12:36:07.269Z,18.50
2019-05-28T12:38:44.437Z,18.50
2019-05-28T12:42:01.791Z,18.70
2019-05-28T12:44:40.854Z,18.80
2019-05-28T12:46:54.405Z,18.90
2019-05-28T12:50:24.214Z,19.00
2019-05-28T12:53:48.086Z,19.10
2019-05-28T12:56:37.300Z,19.00
2019-05-28T12:59:21.020Z,18.90
2019-05-28T13:12:51.644Z,18.80
2019-05-28T13:15:30.931Z,18.80
2019-05-28T13:25:18.738Z,19.00
2019-05-28T13:31:43.210Z,19.30
2019-05-28T13:39:42.432Z,19.30
2019-05-28T13:41:54.859Z,19.40
2019-05-28T13:45:20.200Z,19.20
2019-05-28T13:48:02.974Z,19.20
2019-05-28T13:50:42.652Z,19.20
2019-05-28T14:01:01.219Z,19.10
2019-05-28T14:04:11.818Z,19.20
2019-05-28T14:12:04.831Z,19.40
2019-05-28T14:18:57.676Z,19.40
2019-05-28T14:21:51.596Z,19.30
2019-05-28T14:24:43.375Z,19.10
2019-05-28T14:27:42.079Z,19.00
2019-05-28T14:33:59.896Z,18.90
2019-05-28T14:37:14.569Z,18.90
2019-05-28T14:41:11.124Z,18.80
2019-05-28T14:44:03.186Z,18.80
2019-05-28T14:46:48.294Z,18.50
2019-05-28T14:50:01.977Z,18.40
2019-05-28T14:52:37.620Z,18.30
2019-05-28T14:55:30.039Z,17.90
2019-05-28T14:59:20.385Z,17.40
2019-05-28T15:04:27.025Z,16.70
2019-05-28T15:11:04.928Z,16.70
2019-05-28T15:33:06.078Z,16.90
2019-05-28T15:41:29.294Z,17.30
2019-05-28T15:53:04.697Z,17.60
2019-05-28T15:57:09.235Z,17.60
2019-05-28T16:13:28.402Z,17.90
2019-05-28T16:17:16.280Z,17.90
2019-05-28T16:21:09.049Z,17.80
2019-05-28T16:32:05.412Z,17.80
2019-05-28T16:34:59.320Z,17.80
2019-05-28T16:41:47.419Z,17.90
2019-05-28T16:53:39.569Z,18.00
2019-05-28T16:56:10.324Z,18.00
2019-05-28T16:58:57.858Z,18.00
2019-05-28T17:02:13.744Z,18.00
2019-05-28T17:04:50.154Z,18.00
2019-05-28T17:14:15.182Z,17.90
2019-05-28T17:17:54.531Z,17.80
2019-05-28T17:20:11.839Z,17.80
2019-05-28T17:23:29.581Z,17.70
2019-05-28T17:26:02.802Z,17.80
2019-05-28T17:29:42.779Z,17.90
2019-05-28T17:33:04.559Z,17.80
2019-05-28T17:35:50.137Z,17.50
2019-05-28T17:38:19.735Z,17.10
2019-05-28T17:40:57.830Z,16.80
2019-05-28T17:50:19.846Z,16.20
2019-05-28T17:52:51.872Z,15.90
2019-05-28T17:55:24.767Z,15.60
2019-05-28T17:57:53.715Z,15.30
2019-05-28T18:00:23.342Z,15.20
2019-05-28T18:02:57.011Z,14.90
2019-05-28T18:05:26.375Z,15.00
2019-05-28T18:08:04.701Z,14.90
2019-05-28T18:10:35.251Z,14.80
2019-05-28T18:13:12.984Z,14.70
2019-05-28T18:15:52.553Z,14.70
2019-05-28T18:18:27.182Z,14.60
2019-05-28T18:21:13.037Z,14.40
2019-05-28T18:23:58.629Z,14.40
2019-05-28T18:26:50.734Z,14.40
2019-05-28T18:29:20.926Z,14.50
2019-05-28T18:31:57.358Z,14.40
2019-05-28T18:34:25.039Z,14.30
2019-05-28T18:36:53.830Z,14.40
2019-05-28T18:39:25.353Z,14.40
2019-05-28T18:41:56.917Z,14.40
2019-05-28T18:45:01.036Z,14.40
2019-05-28T18:47:38.135Z,14.40
2019-05-28T18:50:48.564Z,14.40
2019-05-28T18:53:17.022Z,14.30
2019-05-28T18:56:16.446Z,14.30
2019-05-28T18:58:39.254Z,14.30
2019-05-28T19:01:46.159Z,14.40
2019-05-28T19:04:49.024Z,14.50
2019-05-28T19:07:22.237Z,14.50
2019-05-28T19:10:58.903Z,14.60
2019-05-28T19:13:28.136Z,14.60
2019-05-28T19:16:51.472Z,14.50
2019-05-28T19:19:38.602Z,14.50
2019-05-28T19:22:07.632Z,14.50
2019-05-28T19:24:40.015Z,14.40
2019-05-28T19:27:12.146Z,14.40
2019-05-28T19:29:44.747Z,14.40
2019-05-28T19:32:13.552Z,14.40
2019-05-28T19:34:50.241Z,14.40
2019-05-28T19:37:18.653Z,14.30
2019-05-28T19:39:47.103Z,14.30
2019-05-28T19:42:14.798Z,14.30
2019-05-28T19:44:42.445Z,14.20
2019-05-28T19:47:10.101Z,14.20
2019-05-28T19:49:37.815Z,14.20
2019-05-28T19:52:05.553Z,14.20
2019-05-28T19:54:34.052Z,14.10
2019-05-28T19:57:01.892Z,14.10
2019-05-28T19:59:33.707Z,14.10
2019-05-28T20:02:00.879Z,14.10
2019-05-28T20:04:28.799Z,14.20
2019-05-28T20:06:57.202Z,14.20
2019-05-28T20:09:28.216Z,14.30
2019-05-28T20:12:11.534Z,14.30
2019-05-28T20:14:31.036Z,14.30
2019-05-28T20:16:58.808Z,14.30
2019-05-28T20:19:26.689Z,14.30
2019-05-28T20:21:55.743Z,14.30
2019-05-28T20:24:24.070Z,14.20
2019-05-28T20:26:51.900Z,14.20
2019-05-28T20:29:21.814Z,14.20
2019-05-28T20:31:50.657Z,14.30
2019-05-28T20:34:18.732Z,14.30
2019-05-28T20:36:46.703Z,14.40
2019-05-28T20:39:14.413Z,14.50
2019-05-28T20:41:42.338Z,14.70
2019-05-28T20:44:10.584Z,14.70
2019-05-28T20:46:39.066Z,14.80
2019-05-28T20:49:09.427Z,14.90
2019-05-28T20:51:37.258Z,15.00
2019-05-28T20:54:05.047Z,15.10
2019-05-28T20:56:32.818Z,15.20
2019-05-28T20:59:01.464Z,15.20
2019-05-28T21:01:31.130Z,15.10
2019-05-28T21:03:58.762Z,15.10
2019-05-28T21:06:26.473Z,15.10
2019-05-28T21:08:54.217Z,15.00
2019-05-28T21:11:21.848Z,14.90
2019-05-28T21:13:50.315Z,14.90
2019-05-28T21:16:18.167Z,14.70
2019-05-28T21:18:46.614Z,14.60
2019-05-28T21:21:14.346Z,14.50
2019-05-28T21:23:42.073Z,14.50
2019-05-28T21:26:10.058Z,14.50
2019-05-28T21:28:38.130Z,14.50
2019-05-28T21:31:05.879Z,14.50
2019-05-28T21:33:33.454Z,14.50
2019-05-28T21:36:01.476Z,14.40
2019-05-28T21:38:29.215Z,14.30
2019-05-28T21:40:59.759Z,14.30
2019-05-28T21:43:27.720Z,14.30
2019-05-28T21:45:58.142Z,14.30
2019-05-28T21:48:25.951Z,14.30
2019-05-28T21:50:54.520Z,14.40
2019-05-28T21:53:22.409Z,14.30
2019-05-28T21:55:53.081Z,14.20
2019-05-28T21:58:21.083Z,14.20
2019-05-28T22:00:58.419Z,14.00
2019-05-28T22:03:26.260Z,14.00
2019-05-28T22:05:55.183Z,14.00
2019-05-28T22:08:22.918Z,13.90
2019-05-28T22:10:53.925Z,13.90
2019-05-28T22:13:22.591Z,13.80
2019-05-28T22:15:50.883Z,13.70
2019-05-28T22:18:20.569Z,13.70
2019-05-28T22:20:48.069Z,13.60
2019-05-28T22:23:15.806Z,13.50
2019-05-28T22:25:43.616Z,13.50
2019-05-28T22:28:11.310Z,13.40
2019-05-28T22:30:38.958Z,13.40
2019-05-28T22:33:06.685Z,13.30
2019-05-28T22:35:34.273Z,13.30
2019-05-28T22:38:03.270Z,13.30
2019-05-28T22:40:31.265Z,13.20
2019-05-28T22:43:00.572Z,13.30
2019-05-28T22:45:28.737Z,13.30
2019-05-28T22:47:57.286Z,13.30
2019-05-28T22:50:25.641Z,13.30
2019-05-28T22:52:53.936Z,13.40
2019-05-28T22:55:21.674Z,13.20
2019-05-28T22:57:49.457Z,13.20
2019-05-28T23:00:17.301Z,13.10
2019-05-28T23:02:44.866Z,13.20
2019-05-28T23:05:12.724Z,13.10
2019-05-28T23:07:40.413Z,13.10
2019-05-28T23:10:09.754Z,13.00
2019-05-28T23:12:37.805Z,13.00
2019-05-28T23:15:06.051Z,13.00
2019-05-28T23:17:33.870Z,12.90
2019-05-28T23:20:04.702Z,12.90
2019-05-28T23:22:32.864Z,13.00
2019-05-28T23:25:01.119Z,13.10
2019-05-28T23:27:28.993Z,13.10
2019-05-28T23:29:56.625Z,13.20
2019-05-28T23:32:24.705Z,13.20
2019-05-28T23:34:57.632Z,13.10
2019-05-28T23:37:25.300Z,13.10
2019-05-28T23:39:53.423Z,13.10
2019-05-28T23:42:21.040Z,13.00
2019-05-28T23:44:49.000Z,12.90
2019-05-28T23:47:16.565Z,12.80
2019-05-28T23:49:44.111Z,12.70
2019-05-28T23:52:12.747Z,12.70
2019-05-28T23:54:40.334Z,12.70
2019-05-28T23:57:07.884Z,12.60
2019-05-28T23:59:35.451Z,12.60
